This is the latest recevied weather packets stored in our database for station/object K5JLG-10. If no packets are shown the sender has not sent any weather packets the latest 10 day(s).
| Time | Temp. | Humidity | Pressure | Rain* | Wind** | Luminosity | Snow |
|---|---|---|---|---|---|---|---|
| 1777156755 | 31.11° C | 66% | 1003.3 hPa | 0 mm | - | - | - |
| 1777150757 | 31.67° C | 68% | 1004.3 hPa | 0 mm | - | - | - |
| 1777150155 | 31.11° C | 67% | 1004.4 hPa | 0 mm | - | - | - |
| 1777148957 | 31.67° C | 66% | 1004.6 hPa | 0 mm | - | - | - |
| 1777143557 | 30.56° C | 70% | 1005.6 hPa | 0 mm | - | - | - |
| 1777137557 | 29.44° C | 73% | 1007.2 hPa | 0 mm | - | - | - |
| 1777136957 | 29.44° C | 72% | 1007.3 hPa | 0 mm | - | - | - |
| 1777133357 | 27.22° C | 80% | 1007.6 hPa | 0 mm | - | - | - |
| 1777130357 | 26.11° C | 84% | 1007.3 hPa | 0 mm | - | - | - |
| 1777127957 | 25° C | 88% | 1007.2 hPa | 0 mm | - | - | - |
| 1777124957 | 23.89° C | 93% | 1007.4 hPa | 0 mm | - | - | - |
| 1777123156 | 23.33° C | 94% | 1007.4 hPa | 0 mm | - | - | - |
| 1777117757 | 19.44° C | 95% | 1006.7 hPa | 0 mm | - | - | - |
| 1777117156 | 19.44° C | 95% | 1006.7 hPa | 0 mm | - | - | - |
| 1777115976 | 18.89° C | 95% | 1006.6 hPa | 0 mm | - | - | - |
| 1777113556 | 18.33° C | 96% | 1006.3 hPa | 0 mm | - | - | - |
| 1777112956 | 18.33° C | 96% | 1006.2 hPa | 0 mm | - | - | - |
| 1777107557 | 18.89° C | 95% | 1005.9 hPa | 0 mm | - | - | - |
| 1777103956 | 18.89° C | 92% | 1006 hPa | 0 mm | - | - | - |
| 1777101556 | 20° C | 90% | 1006.5 hPa | 0 mm | - | - | - |
| 1777094356 | 21.11° C | 86% | 1006.2 hPa | 0 mm | - | - | - |
| 1777093176 | 21.67° C | 86% | 1006.2 hPa | 0 mm | - | - | - |
| 1777090156 | 23.33° C | 79% | 1005.5 hPa | 0 mm | - | - | - |
| 1777087756 | 24.44° C | 64% | 1004.9 hPa | 0 mm | - | - | - |
| 1777087196 | 24.44° C | 63% | 1004.6 hPa | 0 mm | - | - | - |
* Rain latest hour (hover to see other rain measurements)
** Current wind speed in m/s (hover to see current wind gust speed)